Morristown, Indiana
Current Conditions -  °F | °C
As of 6:53 AM on Friday 28 Nov 2014 (Local Time) from KGEZ Reporting Station
Overcast Overcast  
Wind Chill: 25°   Ceiling: 9000
Heat Index: 25°   Visibility: 10mi
Dew Point: 18°   Wind: 3mph
Humidity: 75%   Direction: 180°S
Pressure: 30.37"   Gusts: NA
Location:  39.67°N, 85.7°W
Report Text: KGEZ 281153Z AUTO 18003KT 10SM OVC090 M04/M08 A3037 RMK AO2 SLP295 T10391078 11028 21050 58005
Loading
Personal Weather Stations






























Interactive Weather Map New forecast layout! Learn more

10-Day Weather Forecast

Advertisements
Track Severe Weather on mobile